createdAt,value
2022-10-19T00:11:54.974Z,100
2022-10-19T00:27:11.906Z,100
2022-10-19T00:42:28.878Z,100
2022-10-19T00:57:44.925Z,100
2022-10-19T01:13:00.852Z,100
2022-10-19T01:28:16.810Z,100
2022-10-19T01:43:33.773Z,100
2022-10-19T01:58:50.776Z,100
2022-10-19T02:14:07.722Z,100
2022-10-19T02:29:24.732Z,100
2022-10-19T02:44:41.677Z,100
2022-10-19T02:59:57.666Z,100
2022-10-19T03:15:13.613Z,100
2022-10-19T03:30:29.582Z,100
2022-10-19T03:45:46.615Z,100
2022-10-19T04:01:03.619Z,100
2022-10-19T04:16:20.518Z,100
2022-10-19T04:31:36.498Z,100
2022-10-19T04:46:53.518Z,100
2022-10-19T05:02:09.446Z,100
2022-10-19T05:17:25.411Z,100
2022-10-19T05:32:41.392Z,100
2022-10-19T05:47:59.406Z,100
2022-10-19T06:03:16.336Z,100
2022-10-19T06:18:33.362Z,100
2022-10-19T06:33:49.759Z,100
2022-10-19T06:49:06.296Z,100
2022-10-19T07:04:22.250Z,100
2022-10-19T07:19:38.248Z,100
2022-10-19T07:34:55.190Z,100
2022-10-19T07:50:13.189Z,100
2022-10-19T08:05:30.190Z,100
2022-10-19T08:20:46.133Z,100
2022-10-19T08:36:02.098Z,100
2022-10-19T08:51:19.061Z,100
2022-10-19T09:06:35.043Z,94
2022-10-19T09:21:51.026Z,87
2022-10-19T09:37:08.018Z,81.5
2022-10-19T09:52:25.950Z,75.5
2022-10-19T10:07:42.931Z,73.5
2022-10-19T10:22:58.892Z,71.5
2022-10-19T10:38:14.850Z,69.5
2022-10-19T10:53:31.811Z,67
2022-10-19T11:08:47.857Z,64.5
2022-10-19T11:24:04.731Z,59
2022-10-19T11:39:21.733Z,58
2022-10-19T11:54:39.667Z,58
2022-10-19T12:09:55.678Z,54.5
2022-10-19T12:25:11.602Z,50.5
2022-10-19T12:40:27.602Z,51
2022-10-19T12:55:45.662Z,51
2022-10-19T13:11:00.538Z,52
2022-10-19T13:26:17.473Z,50.5
2022-10-19T13:41:34.475Z,53.5
2022-10-19T13:56:51.412Z,52.5
2022-10-19T14:12:07.402Z,50.5
2022-10-19T14:27:23.347Z,52.5
2022-10-19T14:42:39.354Z,53
2022-10-19T14:57:56.271Z,54
2022-10-19T15:13:12.293Z,50.5
2022-10-19T15:28:29.240Z,59.5
2022-10-19T15:43:46.175Z,64.5
2022-10-19T15:59:03.187Z,65.5
2022-10-19T16:14:19.140Z,72
2022-10-19T16:29:35.119Z,73.5
2022-10-19T16:44:52.045Z,79
2022-10-19T17:00:08.077Z,79
2022-10-19T17:15:41.945Z,81.5
2022-10-19T17:16:04.873Z,81.5
2022-10-19T17:30:40.966Z,84
2022-10-19T17:45:57.948Z,91
2022-10-19T18:01:14.887Z,92.5
2022-10-19T18:16:31.883Z,96
2022-10-19T18:31:48.852Z,100
2022-10-19T18:47:05.817Z,100
2022-10-19T19:02:22.815Z,100
2022-10-19T19:17:37.766Z,100
2022-10-19T19:32:53.723Z,100
2022-10-19T19:48:10.709Z,100
2022-10-19T20:03:27.673Z,100
2022-10-19T20:18:44.681Z,100
2022-10-19T20:34:00.627Z,100
2022-10-19T20:49:17.627Z,100
2022-10-19T21:04:33.548Z,100
2022-10-19T21:19:49.565Z,100
2022-10-19T21:35:05.512Z,100
2022-10-19T21:50:23.526Z,100
2022-10-19T22:05:40.472Z,100
2022-10-19T22:20:57.463Z,100
2022-10-19T22:36:13.449Z,100
2022-10-19T22:51:30.416Z,100
2022-10-19T23:06:46.375Z,100
2022-10-19T23:22:02.355Z,100
2022-10-19T23:37:19.324Z,100
2022-10-19T23:52:37.376Z,100
